createdAt,value
2023-05-09T00:00:15.260Z,77.61
2023-05-09T00:00:46.928Z,77.30
2023-05-09T00:01:18.580Z,77.48
2023-05-09T00:01:50.242Z,77.92
2023-05-09T00:02:22.361Z,77.62
2023-05-09T00:02:54.422Z,76.99
2023-05-09T00:03:26.129Z,77.00
2023-05-09T00:03:59.464Z,77.31
2023-05-09T00:04:32.823Z,77.79
2023-05-09T00:05:05.928Z,78.09
2023-05-09T00:05:37.539Z,77.87
2023-05-09T00:06:09.644Z,77.72
2023-05-09T00:06:41.323Z,77.52
2023-05-09T00:07:13.031Z,77.57
2023-05-09T00:07:44.631Z,77.56
2023-05-09T00:08:17.048Z,77.61
2023-05-09T00:08:48.784Z,77.46
2023-05-09T00:09:20.732Z,77.64
2023-05-09T00:09:52.319Z,77.60
2023-05-09T00:10:23.949Z,77.59
2023-05-09T00:10:55.651Z,77.92
2023-05-09T00:11:27.391Z,78.06
2023-05-09T00:11:58.985Z,78.00
2023-05-09T00:12:31.118Z,78.00
2023-05-09T00:13:02.857Z,78.12
2023-05-09T00:13:34.873Z,78.84
2023-05-09T00:14:06.804Z,78.89
2023-05-09T00:14:40.763Z,79.97
2023-05-09T00:15:13.194Z,80.05
2023-05-09T00:15:45.069Z,80.51
2023-05-09T00:16:17.976Z,80.74
2023-05-09T00:16:50.757Z,81.20
2023-05-09T00:17:23.792Z,81.30
2023-05-09T00:17:55.481Z,81.76
2023-05-09T00:18:28.524Z,82.04
2023-05-09T00:19:00.344Z,82.35
2023-05-09T00:19:32.723Z,82.40
2023-05-09T00:20:09.416Z,82.47
2023-05-09T00:20:41.240Z,82.47
2023-05-09T00:21:12.936Z,82.97
2023-05-09T00:21:44.589Z,83.40
2023-05-09T00:22:17.213Z,83.49
2023-05-09T00:22:48.854Z,83.76
2023-05-09T00:23:20.501Z,83.16
2023-05-09T00:23:52.145Z,82.86
2023-05-09T00:24:23.758Z,82.41
2023-05-09T00:24:55.679Z,82.21
2023-05-09T00:25:27.591Z,82.16
2023-05-09T00:25:59.688Z,81.90
2023-05-09T00:26:31.311Z,81.70
2023-05-09T00:27:02.922Z,81.66
2023-05-09T00:27:34.729Z,81.68
2023-05-09T00:28:06.572Z,81.14
2023-05-09T00:28:38.212Z,81.16
2023-05-09T00:29:09.819Z,81.13
2023-05-09T00:29:41.406Z,81.09
2023-05-09T00:30:13.194Z,81.27
2023-05-09T00:30:44.986Z,81.32
2023-05-09T00:31:16.601Z,80.93
2023-05-09T00:31:48.638Z,80.77
2023-05-09T00:32:20.557Z,80.73
2023-05-09T00:32:52.227Z,80.69
2023-05-09T00:33:27.028Z,80.57
2023-05-09T00:33:58.676Z,80.45
2023-05-09T00:34:30.280Z,80.62
2023-05-09T00:35:01.963Z,80.86
2023-05-09T00:35:34.868Z,80.84
2023-05-09T00:36:07.016Z,81.09
2023-05-09T00:36:38.629Z,81.62
2023-05-09T00:37:10.488Z,82.30
2023-05-09T00:37:42.089Z,82.56
2023-05-09T00:38:13.848Z,82.05
2023-05-09T00:38:45.466Z,82.22
2023-05-09T00:39:17.189Z,82.80
2023-05-09T00:39:48.909Z,82.74
2023-05-09T00:40:21.116Z,82.95
2023-05-09T00:40:52.732Z,83.39
2023-05-09T00:41:24.366Z,83.58
2023-05-09T00:41:57.270Z,84.14
2023-05-09T00:42:28.924Z,84.68
2023-05-09T00:43:00.599Z,84.22
2023-05-09T00:43:32.633Z,83.90
2023-05-09T00:44:04.461Z,84.03
2023-05-09T00:44:36.162Z,84.18
2023-05-09T00:45:08.698Z,84.00
2023-05-09T00:45:40.307Z,84.01
2023-05-09T00:46:12.339Z,84.06
2023-05-09T00:46:44.420Z,83.95
2023-05-09T00:47:16.193Z,84.52
2023-05-09T00:47:48.195Z,84.26
2023-05-09T00:48:19.833Z,84.22
2023-05-09T00:48:52.844Z,84.23
2023-05-09T00:49:24.459Z,83.81
2023-05-09T00:49:57.204Z,83.31
2023-05-09T00:50:28.928Z,82.00
2023-05-09T00:51:01.446Z,82.79
2023-05-09T00:51:33.429Z,83.73
2023-05-09T00:52:05.672Z,83.82
2023-05-09T00:52:37.807Z,84.18
2023-05-09T00:53:10.366Z,83.92
2023-05-09T00:53:42.100Z,83.73
2023-05-09T00:54:14.050Z,83.82
2023-05-09T00:54:45.643Z,83.80
2023-05-09T00:55:17.916Z,83.33
2023-05-09T00:55:49.766Z,83.00
2023-05-09T00:56:22.092Z,82.88
2023-05-09T00:56:54.282Z,82.04
2023-05-09T00:57:26.071Z,81.68
2023-05-09T00:57:57.848Z,81.76
2023-05-09T00:58:30.114Z,82.69
2023-05-09T00:59:01.734Z,82.84
2023-05-09T00:59:33.370Z,82.89
2023-05-09T01:00:05.684Z,83.75
2023-05-09T01:00:37.281Z,83.99
2023-05-09T01:01:09.046Z,83.86
2023-05-09T01:01:41.157Z,83.50
2023-05-09T01:02:12.822Z,83.62
2023-05-09T01:02:48.314Z,83.40
2023-05-09T01:03:20.043Z,83.47
2023-05-09T01:03:53.061Z,83.79
2023-05-09T01:04:24.910Z,84.28
2023-05-09T01:04:56.905Z,84.20
2023-05-09T01:05:43.866Z,84.06
2023-05-09T01:06:39.641Z,83.31
2023-05-09T01:07:25.515Z,82.96
2023-05-09T01:08:09.112Z,83.03
2023-05-09T01:08:49.780Z,82.94
2023-05-09T01:09:58.429Z,83.05
2023-05-09T01:11:14.971Z,82.78
2023-05-09T01:12:04.749Z,83.28
2023-05-09T01:13:13.356Z,83.04
2023-05-09T01:13:54.640Z,83.09
2023-05-09T01:14:52.113Z,83.02
2023-05-09T01:15:51.784Z,82.89
2023-05-09T01:16:45.981Z,82.67
2023-05-09T01:17:26.067Z,82.49
2023-05-09T01:18:26.113Z,82.35
2023-05-09T01:19:06.673Z,82.39
2023-05-09T01:19:44.233Z,82.39
2023-05-09T01:20:27.729Z,82.36
2023-05-09T01:21:07.359Z,81.99
2023-05-09T01:21:42.627Z,82.20
2023-05-09T01:22:16.782Z,82.16
2023-05-09T01:23:19.321Z,82.04
2023-05-09T01:23:59.672Z,81.94
2023-05-09T01:25:08.299Z,82.15
2023-05-09T01:26:03.488Z,82.68
2023-05-09T01:27:10.446Z,82.36
2023-05-09T01:27:57.590Z,82.64
2023-05-09T01:28:56.982Z,83.13
2023-05-09T01:29:36.645Z,83.11
2023-05-09T01:30:10.545Z,83.67
2023-05-09T01:30:45.631Z,83.96
2023-05-09T01:31:17.783Z,83.95
2023-05-09T01:31:50.818Z,84.06
2023-05-09T01:32:28.813Z,84.56
2023-05-09T01:33:05.707Z,84.87
2023-05-09T01:33:40.567Z,84.91
2023-05-09T01:34:15.170Z,85.21
2023-05-09T01:34:49.694Z,85.35
2023-05-09T01:35:26.322Z,85.22
2023-05-09T01:36:04.500Z,85.11
2023-05-09T01:36:38.292Z,85.56
2023-05-09T01:37:12.921Z,85.17
2023-05-09T01:37:50.503Z,85.29
2023-05-09T01:38:25.425Z,85.62
2023-05-09T01:38:58.629Z,85.42
2023-05-09T01:39:32.903Z,85.49
2023-05-09T01:40:11.983Z,85.89
2023-05-09T01:40:45.822Z,85.50
2023-05-09T01:41:19.249Z,85.69
2023-05-09T01:41:55.301Z,85.77
2023-05-09T01:42:31.918Z,85.51
2023-05-09T01:43:09.973Z,85.21
2023-05-09T01:43:43.077Z,84.76
2023-05-09T01:44:16.256Z,84.40
2023-05-09T01:44:49.704Z,84.34
2023-05-09T01:45:23.025Z,84.16
2023-05-09T01:45:55.921Z,84.16
2023-05-09T01:46:28.826Z,84.07
2023-05-09T01:47:01.787Z,84.28
2023-05-09T01:47:34.797Z,84.44
2023-05-09T01:48:09.733Z,85.15
2023-05-09T01:48:42.770Z,85.08
2023-05-09T01:49:15.864Z,84.68
2023-05-09T01:49:48.182Z,84.48
2023-05-09T01:50:20.803Z,84.41
2023-05-09T01:50:54.888Z,84.67
2023-05-09T01:51:27.540Z,84.40
2023-05-09T01:52:03.879Z,85.10
2023-05-09T01:52:37.225Z,85.91
2023-05-09T01:53:11.654Z,86.23
2023-05-09T01:53:44.361Z,86.30
2023-05-09T01:54:17.744Z,85.49
2023-05-09T01:54:51.302Z,85.35
2023-05-09T01:55:26.223Z,85.04
2023-05-09T01:55:59.500Z,84.82
2023-05-09T01:56:32.296Z,84.89
2023-05-09T01:57:05.428Z,84.44
2023-05-09T01:57:38.906Z,84.32
2023-05-09T01:58:11.559Z,84.35
2023-05-09T01:58:45.436Z,84.82
2023-05-09T01:59:18.455Z,84.77
2023-05-09T01:59:51.259Z,85.45
2023-05-09T02:00:24.482Z,85.40
2023-05-09T02:00:56.654Z,85.56
2023-05-09T02:01:30.409Z,86.42
2023-05-09T02:02:04.607Z,86.33
2023-05-09T02:02:37.161Z,86.16
2023-05-09T02:03:09.319Z,86.15
2023-05-09T02:03:43.008Z,86.31
2023-05-09T02:04:16.329Z,86.45
2023-05-09T02:04:49.199Z,86.66
2023-05-09T02:05:22.165Z,86.63
2023-05-09T02:05:55.667Z,86.47
2023-05-09T02:06:29.963Z,86.19
2023-05-09T02:07:03.140Z,86.04
2023-05-09T02:07:35.373Z,86.23
2023-05-09T02:08:08.604Z,85.88
2023-05-09T02:08:41.356Z,86.36
2023-05-09T02:09:13.268Z,86.60
2023-05-09T02:09:46.332Z,85.92
2023-05-09T02:10:20.798Z,85.75
2023-05-09T02:10:53.247Z,85.41
2023-05-09T02:11:24.978Z,85.42
2023-05-09T02:11:56.616Z,85.61
2023-05-09T02:12:28.595Z,85.70
2023-05-09T02:13:00.255Z,85.75
2023-05-09T02:13:32.165Z,85.68
2023-05-09T02:14:03.769Z,85.29
2023-05-09T02:14:35.749Z,85.20
2023-05-09T02:15:08.911Z,85.00
2023-05-09T02:15:40.902Z,85.05
2023-05-09T02:16:12.905Z,84.81
2023-05-09T02:17:17.352Z,84.85
2023-05-09T02:17:49.023Z,85.00
2023-05-09T02:18:20.652Z,84.60
2023-05-09T02:18:52.461Z,84.61
2023-05-09T02:19:24.092Z,84.50
2023-05-09T02:19:55.687Z,84.39
2023-05-09T02:20:27.268Z,84.48
2023-05-09T02:20:58.881Z,84.43
2023-05-09T02:21:30.814Z,84.74
2023-05-09T02:22:04.798Z,84.89
2023-05-09T02:22:36.821Z,85.64
2023-05-09T02:23:09.240Z,85.44
2023-05-09T02:23:41.076Z,85.64
2023-05-09T02:24:12.849Z,85.67
2023-05-09T02:24:45.703Z,85.00
2023-05-09T02:25:18.672Z,84.68
2023-05-09T02:25:51.529Z,84.69
2023-05-09T02:26:23.502Z,85.00
2023-05-09T02:26:56.510Z,85.10
2023-05-09T02:27:28.314Z,85.21
2023-05-09T02:28:00.798Z,86.43
2023-05-09T02:28:32.867Z,86.36
2023-05-09T02:29:06.938Z,85.57
2023-05-09T02:30:07.588Z,85.98
2023-05-09T02:30:43.316Z,86.23
2023-05-09T02:31:18.974Z,86.46
2023-05-09T02:31:53.154Z,86.41
2023-05-09T02:32:28.881Z,86.54
2023-05-09T02:33:05.207Z,86.48
2023-05-09T02:33:38.761Z,86.01
2023-05-09T02:34:11.624Z,86.02
2023-05-09T02:34:45.164Z,86.40
2023-05-09T02:35:17.903Z,86.92
2023-05-09T02:35:50.371Z,86.86
2023-05-09T02:36:23.550Z,86.73
2023-05-09T02:36:55.358Z,86.39
2023-05-09T02:37:27.545Z,86.36
2023-05-09T02:38:00.343Z,86.14
2023-05-09T02:38:32.232Z,85.90
2023-05-09T02:39:04.041Z,86.00
2023-05-09T02:39:36.481Z,86.14
2023-05-09T02:40:09.547Z,86.05
2023-05-09T02:40:43.614Z,86.21
2023-05-09T02:41:16.238Z,86.36
2023-05-09T02:41:49.503Z,86.16
2023-05-09T02:42:25.487Z,86.26
2023-05-09T02:42:57.653Z,86.57
2023-05-09T02:43:29.237Z,86.09
2023-05-09T02:44:00.877Z,85.75
2023-05-09T02:44:33.114Z,86.35
2023-05-09T02:45:05.204Z,86.53
2023-05-09T02:45:37.085Z,86.03
2023-05-09T02:46:10.045Z,86.16
2023-05-09T02:46:41.751Z,85.91
2023-05-09T02:47:13.356Z,86.11
2023-05-09T02:47:44.966Z,86.41
2023-05-09T02:48:16.678Z,86.69
2023-05-09T02:48:48.369Z,87.07
2023-05-09T02:49:31.597Z,86.83
2023-05-09T02:50:05.216Z,86.83
2023-05-09T02:50:38.567Z,86.51
2023-05-09T02:51:10.217Z,86.26
2023-05-09T02:51:41.838Z,86.55
2023-05-09T02:52:13.874Z,86.48
2023-05-09T02:52:46.008Z,85.78
2023-05-09T02:53:17.600Z,85.75
2023-05-09T02:53:49.327Z,86.00
2023-05-09T02:54:21.786Z,85.84
2023-05-09T02:54:53.377Z,85.55
2023-05-09T02:55:24.969Z,85.40
2023-05-09T02:55:56.695Z,85.47
2023-05-09T02:56:28.301Z,85.85
2023-05-09T02:56:59.924Z,85.98
2023-05-09T02:57:31.553Z,85.96
2023-05-09T02:58:13.347Z,85.98
2023-05-09T02:58:51.344Z,85.93
2023-05-09T02:59:23.214Z,85.99
2023-05-09T02:59:54.838Z,86.28
2023-05-09T03:00:26.483Z,86.83
2023-05-09T03:00:58.052Z,87.23
2023-05-09T03:01:29.938Z,86.97
2023-05-09T03:02:01.765Z,86.87
2023-05-09T03:02:33.433Z,87.15
2023-05-09T03:03:05.266Z,87.45
2023-05-09T03:03:37.184Z,87.61
2023-05-09T03:04:08.845Z,87.59
2023-05-09T03:04:41.267Z,87.20
2023-05-09T03:05:13.066Z,87.19
2023-05-09T03:05:44.890Z,87.15
2023-05-09T03:06:16.521Z,86.96
2023-05-09T03:06:48.160Z,86.85
2023-05-09T03:07:19.927Z,86.97
2023-05-09T03:07:52.005Z,87.09
2023-05-09T03:08:23.596Z,86.74
2023-05-09T03:08:55.183Z,86.38
2023-05-09T03:09:26.765Z,86.25
2023-05-09T03:09:58.373Z,86.28
2023-05-09T03:10:29.986Z,86.69
2023-05-09T03:11:01.607Z,86.29
2023-05-09T03:11:33.815Z,85.77
2023-05-09T03:12:05.834Z,85.65
2023-05-09T03:12:38.587Z,85.54
2023-05-09T03:13:10.855Z,85.57
2023-05-09T03:13:42.469Z,85.43
2023-05-09T03:14:15.014Z,85.22
2023-05-09T03:14:47.075Z,85.14
2023-05-09T03:15:18.790Z,84.96
2023-05-09T03:15:50.509Z,85.17
2023-05-09T03:16:22.583Z,85.44
2023-05-09T03:16:54.252Z,85.16
2023-05-09T03:17:25.985Z,85.28
2023-05-09T03:17:58.027Z,85.76
2023-05-09T03:18:29.636Z,85.49
2023-05-09T03:19:01.265Z,85.25
2023-05-09T03:19:33.057Z,85.25
2023-05-09T03:20:05.847Z,85.04
2023-05-09T03:20:37.541Z,84.98
2023-05-09T03:21:09.155Z,84.90
2023-05-09T03:21:41.541Z,85.20
2023-05-09T03:22:13.147Z,85.40
2023-05-09T03:22:44.851Z,85.33
2023-05-09T03:23:16.583Z,85.49
2023-05-09T03:23:48.220Z,85.83
2023-05-09T03:24:19.855Z,86.09
2023-05-09T03:24:51.573Z,85.90
2023-05-09T03:25:23.307Z,85.98
2023-05-09T03:25:55.067Z,86.40
2023-05-09T03:26:26.753Z,86.32
2023-05-09T03:26:58.385Z,86.16
2023-05-09T03:27:30.030Z,86.15
2023-05-09T03:28:01.712Z,86.63
2023-05-09T03:28:33.350Z,86.39
2023-05-09T03:29:05.357Z,86.59
2023-05-09T03:29:37.148Z,86.63
2023-05-09T03:30:09.191Z,86.81
2023-05-09T03:30:40.769Z,86.81
2023-05-09T03:31:12.438Z,86.69
2023-05-09T03:31:44.147Z,87.16
2023-05-09T03:32:15.859Z,87.08
2023-05-09T03:32:47.539Z,86.94
2023-05-09T03:33:19.365Z,87.00
2023-05-09T03:33:51.172Z,86.89
2023-05-09T03:34:22.870Z,87.07
2023-05-09T03:34:54.872Z,87.17
2023-05-09T03:35:26.651Z,87.20
2023-05-09T03:35:58.256Z,87.08
2023-05-09T03:36:29.980Z,87.07
2023-05-09T03:37:01.739Z,87.23
2023-05-09T03:37:33.309Z,87.36
2023-05-09T03:38:05.784Z,88.00
2023-05-09T03:38:37.604Z,89.34
2023-05-09T03:39:10.082Z,88.35
2023-05-09T03:39:41.818Z,88.06
2023-05-09T03:40:13.581Z,87.54
2023-05-09T03:40:45.344Z,87.24
2023-05-09T03:41:18.808Z,86.88
2023-05-09T03:41:50.633Z,86.81
2023-05-09T03:42:23.216Z,87.13
2023-05-09T03:42:54.809Z,87.18
2023-05-09T03:43:26.613Z,87.14
2023-05-09T03:43:58.306Z,86.97
2023-05-09T03:44:29.912Z,87.56
2023-05-09T03:45:01.501Z,86.92
2023-05-09T03:45:33.125Z,86.69
2023-05-09T03:46:04.837Z,87.01
2023-05-09T03:46:36.480Z,87.09
2023-05-09T03:47:08.159Z,87.60
2023-05-09T03:47:40.008Z,87.02
2023-05-09T03:48:12.127Z,87.42
2023-05-09T03:48:43.773Z,87.34
2023-05-09T03:49:15.336Z,87.81
2023-05-09T03:49:47.108Z,87.62
2023-05-09T03:50:18.937Z,87.18
2023-05-09T03:50:50.985Z,86.69
2023-05-09T03:51:22.638Z,86.55
2023-05-09T03:51:54.298Z,86.50
2023-05-09T03:52:25.952Z,86.21
2023-05-09T03:52:57.566Z,86.30
2023-05-09T03:53:29.171Z,86.56
2023-05-09T03:54:01.241Z,86.96
2023-05-09T03:54:32.881Z,86.76
2023-05-09T03:55:06.003Z,86.44
2023-05-09T03:55:37.707Z,86.47
2023-05-09T03:56:09.375Z,86.59
2023-05-09T03:56:41.012Z,86.78
2023-05-09T03:57:12.606Z,86.86
2023-05-09T03:57:44.210Z,86.77
2023-05-09T03:58:15.935Z,86.39
2023-05-09T03:58:47.627Z,86.40
2023-05-09T03:59:19.226Z,86.72
2023-05-09T03:59:51.354Z,86.33
2023-05-09T04:00:23.188Z,86.60
2023-05-09T04:00:55.150Z,86.16
2023-05-09T04:01:26.846Z,85.69
2023-05-09T04:01:58.497Z,86.09
2023-05-09T04:02:30.327Z,85.75
2023-05-09T04:03:02.259Z,85.06
2023-05-09T04:03:34.046Z,84.91
2023-05-09T04:04:05.991Z,84.78
2023-05-09T04:04:37.723Z,84.35
2023-05-09T04:05:09.566Z,84.59
2023-05-09T04:05:41.785Z,84.91
2023-05-09T04:06:13.410Z,84.66
2023-05-09T04:06:44.988Z,84.59
2023-05-09T04:07:16.653Z,84.31
2023-05-09T04:07:48.345Z,84.31
2023-05-09T04:08:19.995Z,84.31
2023-05-09T04:08:51.684Z,84.27
2023-05-09T04:09:23.520Z,84.16
2023-05-09T04:09:56.109Z,83.84
2023-05-09T04:10:27.718Z,83.33
2023-05-09T04:10:59.636Z,83.34
2023-05-09T04:11:31.248Z,84.04
2023-05-09T04:12:02.932Z,83.73
2023-05-09T04:12:34.756Z,83.12
2023-05-09T04:13:06.457Z,83.05
2023-05-09T04:13:38.163Z,82.88
2023-05-09T04:14:09.811Z,83.00
2023-05-09T04:14:41.518Z,82.84
2023-05-09T04:15:13.506Z,83.22
2023-05-09T04:15:45.631Z,83.05
2023-05-09T04:16:17.304Z,83.68
2023-05-09T04:16:49.020Z,84.14
2023-05-09T04:17:20.673Z,84.06
2023-05-09T04:17:52.273Z,84.01
2023-05-09T04:18:23.999Z,83.83
2023-05-09T04:18:55.778Z,83.70
2023-05-09T04:19:27.390Z,83.91
2023-05-09T04:19:59.107Z,83.94
2023-05-09T04:20:31.413Z,83.94
2023-05-09T04:21:03.436Z,83.82
2023-05-09T04:21:35.442Z,83.43
2023-05-09T04:22:07.082Z,83.75
2023-05-09T04:22:38.818Z,83.55
2023-05-09T04:23:10.524Z,83.28
2023-05-09T04:23:43.705Z,83.33
2023-05-09T04:24:15.337Z,83.36
2023-05-09T04:24:46.933Z,83.62
2023-05-09T04:25:20.555Z,83.11
2023-05-09T04:25:53.972Z,82.72
2023-05-09T04:26:25.934Z,82.66
2023-05-09T04:26:57.855Z,82.86
2023-05-09T04:27:29.582Z,82.95
2023-05-09T04:28:01.387Z,82.56
2023-05-09T04:28:33.046Z,81.91
2023-05-09T04:29:04.828Z,81.49
2023-05-09T04:29:36.469Z,81.34
2023-05-09T04:30:09.485Z,81.55
2023-05-09T04:30:41.365Z,81.91
2023-05-09T04:31:14.920Z,81.63
2023-05-09T04:31:46.756Z,81.13
2023-05-09T04:32:18.637Z,81.01
2023-05-09T04:32:50.349Z,82.72
2023-05-09T04:33:24.226Z,83.35
2023-05-09T04:33:56.136Z,82.04
2023-05-09T04:34:31.814Z,82.01
2023-05-09T04:35:04.150Z,81.41
2023-05-09T04:35:35.734Z,80.84
2023-05-09T04:36:08.115Z,80.93
2023-05-09T04:36:39.727Z,82.11
2023-05-09T04:37:11.304Z,82.23
2023-05-09T04:37:42.988Z,81.29
2023-05-09T04:38:14.596Z,81.12
2023-05-09T04:38:46.571Z,80.69
2023-05-09T04:39:18.153Z,80.43
2023-05-09T04:39:49.727Z,80.54
2023-05-09T04:40:21.723Z,81.00
2023-05-09T04:40:53.337Z,80.88
2023-05-09T04:41:25.060Z,80.63
2023-05-09T04:41:56.666Z,80.41
2023-05-09T04:42:28.256Z,80.42
2023-05-09T04:42:59.818Z,79.18
2023-05-09T04:43:32.658Z,78.06
2023-05-09T04:44:04.539Z,77.60
2023-05-09T04:44:36.249Z,77.86
2023-05-09T04:45:08.516Z,78.41
2023-05-09T04:45:40.704Z,79.16
2023-05-09T04:46:12.355Z,78.86
2023-05-09T04:46:44.187Z,78.37
2023-05-09T04:47:15.962Z,78.23
2023-05-09T04:47:47.644Z,78.19
2023-05-09T04:48:19.387Z,77.03
2023-05-09T04:48:51.198Z,76.93
2023-05-09T04:49:22.827Z,76.89
2023-05-09T04:49:54.614Z,77.43
2023-05-09T04:50:26.339Z,78.26
2023-05-09T04:50:57.927Z,78.03
2023-05-09T04:51:29.492Z,76.95
2023-05-09T04:52:01.093Z,76.85
2023-05-09T04:52:32.717Z,76.14
2023-05-09T04:53:04.341Z,76.38
2023-05-09T04:53:35.991Z,75.50
2023-05-09T04:54:07.657Z,75.79
2023-05-09T04:54:39.505Z,75.52
2023-05-09T04:55:11.145Z,74.42
2023-05-09T04:55:42.790Z,74.54
2023-05-09T04:56:14.414Z,74.74
2023-05-09T04:56:47.393Z,74.95
2023-05-09T04:57:21.460Z,74.95
2023-05-09T04:57:53.034Z,74.92
2023-05-09T04:58:25.818Z,74.44
2023-05-09T04:58:57.390Z,74.34
2023-05-09T04:59:29.041Z,74.36
2023-05-09T05:00:00.649Z,73.70
2023-05-09T05:00:32.342Z,73.93
2023-05-09T05:01:05.833Z,74.09
2023-05-09T05:01:37.481Z,73.25
2023-05-09T05:02:09.091Z,72.81
2023-05-09T05:02:40.912Z,73.70
2023-05-09T05:03:12.875Z,72.29
2023-05-09T05:03:46.208Z,71.96
2023-05-09T05:04:17.906Z,72.08
2023-05-09T05:04:49.735Z,72.02
2023-05-09T05:05:25.055Z,72.00
2023-05-09T05:05:56.986Z,73.22
2023-05-09T05:06:28.579Z,72.24
2023-05-09T05:07:00.532Z,72.19
2023-05-09T05:07:32.120Z,72.63
2023-05-09T05:08:04.138Z,72.40
2023-05-09T05:08:35.745Z,72.27
2023-05-09T05:09:07.484Z,72.18
2023-05-09T05:09:39.267Z,72.41
2023-05-09T05:10:10.966Z,71.96
2023-05-09T05:10:42.658Z,71.80
2023-05-09T05:11:14.268Z,72.17
2023-05-09T05:11:58.453Z,72.61
2023-05-09T05:12:32.615Z,72.10
2023-05-09T05:13:04.264Z,71.99
2023-05-09T05:13:35.851Z,71.62
2023-05-09T05:14:07.490Z,71.71
2023-05-09T05:14:39.097Z,71.84
2023-05-09T05:15:11.186Z,72.04
2023-05-09T05:15:43.212Z,71.91
2023-05-09T05:16:14.887Z,71.56
2023-05-09T05:16:46.507Z,71.87
2023-05-09T05:17:18.437Z,72.49
2023-05-09T05:17:50.486Z,71.83
2023-05-09T05:18:22.661Z,71.83
2023-05-09T05:18:54.247Z,71.77
2023-05-09T05:19:26.136Z,71.76
2023-05-09T05:19:58.597Z,71.52
2023-05-09T05:20:30.166Z,71.58
2023-05-09T05:21:01.781Z,72.13
2023-05-09T05:21:33.381Z,72.48
2023-05-09T05:22:05.135Z,72.30
2023-05-09T05:22:36.992Z,71.98
2023-05-09T05:23:09.134Z,71.90
2023-05-09T05:23:40.765Z,72.32
2023-05-09T05:24:12.437Z,72.10
2023-05-09T05:24:44.020Z,71.92
2023-05-09T05:25:17.476Z,72.28
2023-05-09T05:25:49.223Z,71.24
2023-05-09T05:26:21.105Z,71.48
2023-05-09T05:26:52.791Z,71.07
2023-05-09T05:27:24.393Z,71.40
2023-05-09T05:27:56.006Z,71.05
2023-05-09T05:28:27.641Z,70.91
2023-05-09T05:28:59.281Z,70.89
2023-05-09T05:29:30.938Z,70.75
2023-05-09T05:30:02.635Z,70.65
2023-05-09T05:30:34.625Z,70.92
2023-05-09T05:31:06.449Z,70.93
2023-05-09T05:31:38.217Z,70.92
2023-05-09T05:32:10.756Z,70.79
2023-05-09T05:32:43.718Z,70.68
2023-05-09T05:33:15.627Z,70.45
2023-05-09T05:33:47.379Z,71.26
2023-05-09T05:34:19.068Z,70.96
2023-05-09T05:34:50.687Z,70.42
2023-05-09T05:35:23.467Z,70.62
2023-05-09T05:35:55.128Z,70.83
2023-05-09T05:36:26.719Z,71.14
2023-05-09T05:36:58.283Z,71.12
2023-05-09T05:37:29.874Z,71.47
2023-05-09T05:38:01.853Z,71.12
2023-05-09T05:38:33.532Z,70.34
2023-05-09T05:39:05.148Z,71.27
2023-05-09T05:39:36.787Z,70.54
2023-05-09T05:40:09.066Z,69.64
2023-05-09T05:40:40.960Z,70.07
2023-05-09T05:41:12.559Z,71.05
2023-05-09T05:41:44.197Z,71.56
2023-05-09T05:42:15.775Z,68.96
2023-05-09T05:42:47.356Z,69.29
2023-05-09T05:43:18.962Z,69.28
2023-05-09T05:43:52.834Z,69.30
2023-05-09T05:44:25.827Z,69.97
2023-05-09T05:44:57.641Z,70.52
2023-05-09T05:45:30.368Z,69.17
2023-05-09T05:46:02.000Z,70.58
2023-05-09T05:46:33.749Z,69.22
2023-05-09T05:47:05.650Z,68.73
2023-05-09T05:47:37.594Z,68.59
2023-05-09T05:48:09.569Z,68.67
2023-05-09T05:48:41.205Z,69.72
2023-05-09T05:49:12.861Z,68.84
2023-05-09T05:49:44.741Z,67.94
2023-05-09T05:50:16.342Z,68.01
2023-05-09T05:50:47.968Z,70.63
2023-05-09T05:51:19.751Z,69.68
2023-05-09T05:51:51.601Z,67.50
2023-05-09T05:52:23.239Z,67.43
2023-05-09T05:52:55.100Z,67.54
2023-05-09T05:53:26.704Z,68.69
2023-05-09T05:53:58.356Z,68.57
2023-05-09T05:54:30.007Z,69.70
2023-05-09T05:55:01.601Z,68.17
2023-05-09T05:55:33.249Z,67.96
2023-05-09T05:56:05.201Z,67.48
2023-05-09T05:56:36.981Z,67.68
2023-05-09T05:57:08.652Z,67.27
2023-05-09T05:57:40.395Z,67.38
2023-05-09T05:58:12.027Z,67.65
2023-05-09T05:58:43.778Z,67.64
2023-05-09T05:59:16.309Z,67.71
2023-05-09T05:59:48.467Z,68.06
2023-05-09T06:00:20.797Z,68.35
2023-05-09T06:00:53.105Z,68.03
2023-05-09T06:01:24.805Z,68.25
2023-05-09T06:01:56.450Z,67.89
2023-05-09T06:02:28.198Z,67.57
2023-05-09T06:03:00.239Z,67.50
2023-05-09T06:03:32.149Z,68.35
2023-05-09T06:04:04.171Z,67.65
2023-05-09T06:04:35.764Z,67.72
2023-05-09T06:05:08.553Z,67.93
2023-05-09T06:05:47.482Z,68.08
2023-05-09T06:06:19.337Z,68.17
2023-05-09T06:06:51.196Z,67.81
2023-05-09T06:07:23.117Z,66.84
2023-05-09T06:07:55.051Z,67.21
2023-05-09T06:08:26.822Z,66.79
2023-05-09T06:08:58.498Z,66.63
2023-05-09T06:09:30.102Z,66.55
2023-05-09T06:10:01.752Z,66.49
2023-05-09T06:10:33.325Z,66.72
2023-05-09T06:11:06.020Z,66.77
2023-05-09T06:11:37.750Z,67.01
2023-05-09T06:12:09.519Z,67.28
2023-05-09T06:12:41.240Z,67.17
2023-05-09T06:13:12.924Z,67.32
2023-05-09T06:13:44.948Z,67.30
2023-05-09T06:14:16.549Z,67.53
2023-05-09T06:14:48.219Z,67.51
2023-05-09T06:15:19.858Z,67.50
2023-05-09T06:15:51.560Z,67.32
2023-05-09T06:16:23.342Z,67.25
2023-05-09T06:16:55.115Z,67.33
2023-05-09T06:17:27.209Z,67.44
2023-05-09T06:17:59.769Z,67.59
2023-05-09T06:18:31.452Z,67.63
2023-05-09T06:19:03.115Z,67.47
2023-05-09T06:19:34.707Z,67.70
2023-05-09T06:20:07.220Z,67.49
2023-05-09T06:20:38.850Z,67.26
2023-05-09T06:21:10.492Z,67.34
2023-05-09T06:21:42.085Z,67.07
2023-05-09T06:22:13.700Z,67.99
2023-05-09T06:22:45.342Z,67.83
2023-05-09T06:23:22.087Z,67.07
2023-05-09T06:24:35.996Z,67.43
2023-05-09T06:25:10.482Z,67.39
2023-05-09T06:25:42.343Z,67.26
2023-05-09T06:26:14.895Z,67.74
2023-05-09T06:26:46.532Z,67.01
2023-05-09T06:27:18.243Z,66.90
2023-05-09T06:27:49.832Z,67.27
2023-05-09T06:28:21.422Z,67.41
2023-05-09T06:28:53.092Z,67.26
2023-05-09T06:29:24.688Z,66.90
2023-05-09T06:29:56.502Z,66.49
2023-05-09T06:30:28.216Z,66.31
2023-05-09T06:31:00.936Z,66.00
2023-05-09T06:31:33.605Z,66.12
2023-05-09T06:32:05.800Z,66.31
2023-05-09T06:32:37.412Z,65.54
2023-05-09T06:33:09.164Z,65.33
2023-05-09T06:33:41.176Z,65.41
2023-05-09T06:34:12.784Z,65.45
2023-05-09T06:34:44.349Z,65.97
2023-05-09T06:35:16.207Z,66.33
2023-05-09T06:35:48.616Z,66.48
2023-05-09T06:36:20.500Z,66.25
2023-05-09T06:36:52.584Z,66.01
2023-05-09T06:37:24.326Z,65.68
2023-05-09T06:37:56.001Z,66.34
2023-05-09T06:38:27.616Z,66.79
2023-05-09T06:38:59.951Z,66.47
2023-05-09T06:39:31.570Z,65.98
2023-05-09T06:40:03.456Z,65.87
2023-05-09T06:40:35.125Z,66.18
2023-05-09T06:41:06.727Z,66.29
2023-05-09T06:41:38.343Z,66.97
2023-05-09T06:42:10.103Z,67.31
2023-05-09T06:42:41.702Z,67.51
2023-05-09T06:43:13.288Z,67.33
2023-05-09T06:43:44.911Z,67.16
2023-05-09T06:44:16.496Z,67.10
2023-05-09T06:44:48.200Z,67.38
2023-05-09T06:45:20.334Z,67.34
2023-05-09T06:45:52.753Z,67.36
2023-05-09T06:46:24.567Z,67.41
2023-05-09T06:46:56.398Z,67.26
2023-05-09T06:47:28.101Z,67.41
2023-05-09T06:47:59.720Z,67.48
2023-05-09T06:48:31.398Z,67.51
2023-05-09T06:49:03.096Z,67.60
2023-05-09T06:49:34.713Z,67.39
2023-05-09T06:50:07.134Z,67.65
2023-05-09T06:50:38.712Z,67.89
2023-05-09T06:51:11.580Z,69.49
2023-05-09T06:51:43.167Z,69.47
2023-05-09T06:52:15.913Z,69.65
2023-05-09T06:52:47.548Z,68.91
2023-05-09T06:53:19.163Z,68.10
2023-05-09T06:53:51.071Z,68.45
2023-05-09T06:54:22.722Z,67.58
2023-05-09T06:54:54.384Z,67.54
2023-05-09T06:55:26.061Z,67.71
2023-05-09T06:55:57.780Z,66.46
2023-05-09T06:56:29.559Z,65.69
2023-05-09T06:57:01.277Z,66.48
2023-05-09T06:57:32.989Z,66.47
2023-05-09T06:58:04.623Z,66.43
2023-05-09T06:58:36.599Z,66.66
2023-05-09T06:59:08.388Z,66.69
2023-05-09T06:59:40.099Z,66.94
2023-05-09T07:00:19.154Z,66.47
2023-05-09T07:00:51.616Z,65.78
2023-05-09T07:01:23.437Z,65.61
2023-05-09T07:01:55.873Z,65.46
2023-05-09T07:02:27.602Z,65.10
2023-05-09T07:02:59.336Z,65.14
2023-05-09T07:03:31.181Z,65.26
2023-05-09T07:04:02.790Z,65.51
2023-05-09T07:04:34.472Z,64.74
2023-05-09T07:05:06.508Z,64.52
2023-05-09T07:05:38.170Z,64.32
2023-05-09T07:06:10.018Z,63.97